Time;durP1;ratioP1;P1;durP2;ratioP2;P2;SDS_P1;SDS_P2;PMS_P1;PMS_P2;Temp;Humidity;BMP_temperature;BMP_pressure;BME280_temperature;BME280_humidity;BME280_pressure;Samples;Min_cycle;Max_cycle;Signal;HPM_P1;HPM_P2
2022/01/24 00:01:17;;;;;;;6.93;4.18;;;2.30;99.90;;;;;;5084709;28;20023;-89
2022/01/24 00:03:43;;;;;;;5.78;4.03;;;2.30;99.90;;;;;;5092112;28;20047;-90
2022/01/24 00:06:12;;;;;;;5.53;4.00;;;2.30;99.90;;;;;;5073737;28;20040;-90
2022/01/24 00:08:38;;;;;;;5.00;4.10;;;2.30;99.90;;;;;;5069947;28;20074;-89
2022/01/24 00:11:09;;;;;;;6.30;4.55;;;2.30;99.90;;;;;;5068198;28;20028;-90
2022/01/24 00:26:49;;;;;;;5.07;3.95;;;2.30;99.90;;;;;;5096944;28;20039;-90
2022/01/24 00:29:19;;;;;;;5.18;4.32;;;2.30;99.90;;;;;;5073479;28;20032;-89
2022/01/24 00:31:46;;;;;;;5.72;4.57;;;2.30;99.90;;;;;;5075007;28;20024;-89
2022/01/24 00:34:14;;;;;;;5.80;4.72;;;2.30;99.90;;;;;;5085774;28;20054;-90
2022/01/24 00:36:40;;;;;;;7.22;5.03;;;2.40;99.90;;;;;;5077206;28;20048;-90
2022/01/24 00:39:07;;;;;;;6.07;4.53;;;2.40;99.90;;;;;;5068112;28;20025;-90
2022/01/24 00:41:39;;;;;;;6.78;4.55;;;2.30;99.90;;;;;;5086300;28;20024;-90
2022/01/24 00:46:43;;;;;;;7.05;4.53;;;2.40;99.90;;;;;;5096536;28;20032;-89
2022/01/24 00:49:22;;;;;;;5.30;4.28;;;2.40;99.90;;;;;;5073411;28;20038;-90
2022/01/24 00:54:45;;;;;;;6.50;4.70;;;2.40;99.90;;;;;;5095936;28;20035;-90
2022/01/24 00:57:11;;;;;;;5.85;4.22;;;2.30;99.90;;;;;;5089192;28;20035;-90
2022/01/24 00:59:37;;;;;;;6.30;4.43;;;2.40;99.90;;;;;;5073856;28;20029;-90
2022/01/24 01:02:04;;;;;;;7.70;4.47;;;2.40;99.90;;;;;;5073086;28;20066;-90
2022/01/24 01:07:25;;;;;;;5.32;4.10;;;2.40;99.90;;;;;;5053576;28;20044;-90
2022/01/24 01:23:21;;;;;;;4.07;3.58;;;2.50;99.90;;;;;;5096024;28;20028;-90
2022/01/24 01:25:48;;;;;;;4.38;3.97;;;2.50;99.90;;;;;;5076093;28;20031;-89
2022/01/24 01:28:15;;;;;;;4.95;4.00;;;2.60;99.90;;;;;;5073966;28;20056;-89
2022/01/24 01:30:46;;;;;;;8.70;4.20;;;2.60;99.90;;;;;;5076552;28;20054;-89
2022/01/24 01:33:23;;;;;;;6.15;4.22;;;2.60;99.90;;;;;;5073780;28;20053;-90
2022/01/24 01:57:16;;;;;;;7.57;4.63;;;2.70;99.90;;;;;;5094221;28;20016;-90
2022/01/24 01:59:42;;;;;;;6.40;4.70;;;2.70;99.90;;;;;;5060978;28;20027;-90
2022/01/24 02:02:08;;;;;;;6.15;5.25;;;2.70;99.90;;;;;;5063422;28;20107;-89
2022/01/24 02:04:34;;;;;;;6.72;5.30;;;2.70;99.90;;;;;;5077639;28;20054;-90
2022/01/24 02:07:01;;;;;;;8.13;5.28;;;2.70;99.90;;;;;;5075214;28;20036;-89
2022/01/24 02:09:32;;;;;;;6.05;5.10;;;2.80;99.90;;;;;;5092090;28;20051;-89
2022/01/24 02:11:58;;;;;;;8.15;5.10;;;2.80;99.90;;;;;;5066397;28;20086;-89
2022/01/24 02:14:30;;;;;;;6.38;5.15;;;2.80;99.90;;;;;;5095039;28;20024;-90
2022/01/24 02:17:02;;;;;;;6.68;5.35;;;2.80;99.90;;;;;;5073178;28;20032;-89
2022/01/24 02:19:33;;;;;;;7.05;5.55;;;2.80;99.90;;;;;;5067505;28;20361;-90
2022/01/24 02:24:32;;;;;;;6.68;5.68;;;2.80;99.90;;;;;;5094055;28;20170;-89
2022/01/24 02:26:59;;;;;;;7.78;5.80;;;2.90;99.90;;;;;;5076212;28;20024;-89
2022/01/24 02:29:52;;;;;;;9.23;5.90;;;2.80;99.90;;;;;;5090962;28;20054;-90
2022/01/24 02:32:18;;;;;;;;;;;2.90;99.90;;;;;;5071831;28;20032;-88
2022/01/24 02:34:46;;;;;;;9.15;5.38;;;2.90;99.90;;;;;;5071714;28;19913;-90
2022/01/24 02:37:16;;;;;;;7.85;6.03;;;2.90;99.90;;;;;;5080535;28;20027;-89
2022/01/24 02:39:59;;;;;;;7.38;5.82;;;2.90;99.90;;;;;;5114301;28;20083;-89
2022/01/24 02:51:22;;;;;;;7.25;5.90;;;2.90;99.90;;;;;;5095634;28;20023;-89
2022/01/24 02:53:48;;;;;;;6.10;5.45;;;2.90;99.90;;;;;;5092331;28;20139;-90
2022/01/24 02:56:13;;;;;;;6.97;5.93;;;2.90;99.90;;;;;;5077417;28;20044;-92
2022/01/24 02:58:39;;;;;;;9.20;6.03;;;2.90;99.90;;;;;;5076419;28;20051;-90
2022/01/24 03:01:07;;;;;;;8.40;6.15;;;2.90;99.90;;;;;;5060322;28;20028;-89
2022/01/24 03:03:36;;;;;;;6.75;5.53;;;2.90;99.90;;;;;;5070595;28;20028;-90
2022/01/24 03:06:03;;;;;;;10.48;6.10;;;2.90;99.90;;;;;;5067735;28;20063;-90
2022/01/24 03:08:29;;;;;;;8.75;5.90;;;2.90;99.90;;;;;;5067321;28;20052;-90
2022/01/24 03:10:54;;;;;;;9.18;6.30;;;2.90;99.90;;;;;;5093565;28;20028;-90
2022/01/24 03:13:32;;;;;;;9.23;5.43;;;2.90;99.90;;;;;;5073636;28;20127;-90
2022/01/24 03:16:00;;;;;;;7.03;5.47;;;2.90;99.90;;;;;;5074542;28;20028;-90
2022/01/24 03:18:26;;;;;;;6.22;5.30;;;2.90;99.90;;;;;;5083276;28;20024;-90
2022/01/24 03:20:52;;;;;;;7.47;5.32;;;2.90;99.90;;;;;;5064260;28;20336;-90
2022/01/24 03:23:21;;;;;;;5.97;4.95;;;2.90;99.90;;;;;;5092361;28;20032;-91
2022/01/24 03:25:47;;;;;;;5.30;4.72;;;2.90;99.90;;;;;;5074263;28;20392;-90
2022/01/24 03:28:13;;;;;;;7.10;4.78;;;2.90;99.90;;;;;;5073676;28;20028;-91
2022/01/24 03:30:39;;;;;;;7.90;5.03;;;2.90;99.90;;;;;;5079378;28;20027;-90
2022/01/24 03:33:06;;;;;;;5.38;4.80;;;2.90;99.90;;;;;;5069400;28;20048;-90
2022/01/24 03:35:33;;;;;;;5.57;4.95;;;2.90;99.90;;;;;;5065445;28;20026;-90
2022/01/24 03:37:59;;;;;;;7.70;5.47;;;2.90;99.90;;;;;;5072931;28;20036;-90
2022/01/24 03:40:24;;;;;;;5.47;4.50;;;2.90;99.90;;;;;;5056386;28;20360;-91
2022/01/24 03:42:50;;;;;;;10.13;4.88;;;2.90;99.90;;;;;;5057940;28;20048;-90
2022/01/24 03:45:24;;;;;;;11.00;4.72;;;2.90;99.90;;;;;;5061807;28;20028;-91
2022/01/24 03:48:03;;;;;;;6.88;4.55;;;2.90;99.90;;;;;;5057345;28;20035;-91
2022/01/24 03:50:29;;;;;;;5.13;4.20;;;2.90;99.90;;;;;;5074675;28;20024;-90
2022/01/24 03:52:55;;;;;;;7.78;4.72;;;2.90;99.90;;;;;;5072770;28;20020;-90
2022/01/24 03:55:20;;;;;;;7.20;4.60;;;2.90;99.90;;;;;;5054672;28;20028;-90
2022/01/24 03:57:46;;;;;;;8.80;4.15;;;2.90;99.90;;;;;;5060149;28;20020;-90
2022/01/24 04:00:12;;;;;;;7.88;3.90;;;2.80;99.90;;;;;;5064629;28;20493;-91
2022/01/24 04:02:39;;;;;;;4.85;4.13;;;2.90;99.90;;;;;;5070886;28;20061;-91
2022/01/24 04:05:05;;;;;;;4.75;3.80;;;2.90;99.90;;;;;;5074632;28;20024;-90
2022/01/24 04:07:31;;;;;;;7.30;4.38;;;2.90;99.90;;;;;;5070456;28;20031;-91
2022/01/24 04:10:03;;;;;;;5.03;3.60;;;2.90;99.90;;;;;;5066022;28;20032;-90
2022/01/24 04:12:29;;;;;;;9.10;4.40;;;2.90;99.90;;;;;;5072328;28;20055;-90
2022/01/24 04:17:46;;;;;;;6.50;3.85;;;2.90;99.90;;;;;;5102719;28;20092;-69
2022/01/24 04:22:59;;;;;;;5.43;4.05;;;2.90;99.90;;;;;;5110147;28;20112;-69
2022/01/24 04:25:25;;;;;;;3.97;3.58;;;2.80;99.90;;;;;;5083807;28;20051;-69
2022/01/24 04:27:53;;;;;;;6.10;3.80;;;2.80;99.90;;;;;;5071173;28;20115;-68
2022/01/24 04:30:19;;;;;;;5.00;3.78;;;2.80;99.90;;;;;;5071386;28;20039;-69
2022/01/24 04:32:45;;;;;;;5.45;3.85;;;2.80;99.90;;;;;;5071285;28;20480;-69
2022/01/24 04:35:11;;;;;;;6.75;3.50;;;2.80;99.90;;;;;;5072058;28;20089;-69
2022/01/24 04:37:37;;;;;;;6.55;4.00;;;2.80;99.90;;;;;;5070720;28;20032;-70
2022/01/24 04:40:04;;;;;;;9.93;3.30;;;2.80;99.90;;;;;;5072052;28;20028;-71
2022/01/24 04:43:01;;;;;;;4.97;2.97;;;2.80;99.90;;;;;;5071753;28;20028;-69
2022/01/24 04:50:28;;;;;;;5.40;2.45;;;2.70;99.90;;;;;;5084792;28;20024;-70
2022/01/24 04:50:59;;;;;;;5.43;2.90;;;2.70;99.90;;;;;;5077716;28;20073;-70
2022/01/24 04:56:19;;;;;;;3.10;2.80;;;2.70;99.90;;;;;;5066201;28;20116;-71
2022/01/24 04:58:45;;;;;;;3.30;3.00;;;2.70;99.90;;;;;;5074085;28;20059;-71
2022/01/24 05:01:11;;;;;;;4.60;3.30;;;2.80;99.90;;;;;;5075148;28;20111;-71
2022/01/24 05:03:37;;;;;;;3.85;3.38;;;2.70;99.90;;;;;;5091802;28;20471;-70
2022/01/24 05:06:03;;;;;;;4.35;3.60;;;2.80;99.90;;;;;;5074805;28;20071;-70
2022/01/24 05:08:28;;;;;;;3.95;3.00;;;2.80;99.90;;;;;;5074724;28;20426;-72
2022/01/24 05:11:11;;;;;;;5.05;3.47;;;2.80;99.90;;;;;;5074732;28;20754;-70
2022/01/24 05:24:39;;;;;;;2.88;2.60;;;2.70;99.90;;;;;;5093555;28;20016;-72
2022/01/24 05:27:05;;;;;;;3.10;2.75;;;2.70;99.90;;;;;;5074551;28;20032;-70
2022/01/24 05:29:31;;;;;;;4.32;2.55;;;2.70;99.90;;;;;;5074602;28;20020;-71
2022/01/24 05:31:57;;;;;;;3.50;2.78;;;2.70;99.90;;;;;;5068455;28;20054;-70
2022/01/24 05:34:23;;;;;;;4.63;3.20;;;2.70;99.90;;;;;;5070343;28;20020;-71
2022/01/24 05:36:49;;;;;;;3.10;2.80;;;2.70;99.90;;;;;;5063625;28;20085;-69
2022/01/24 05:39:15;;;;;;;3.33;2.47;;;2.70;99.90;;;;;;5072298;28;20021;-70
2022/01/24 05:41:40;;;;;;;3.40;2.80;;;2.70;99.90;;;;;;5073119;28;20095;-69
2022/01/24 05:44:07;;;;;;;4.90;3.00;;;2.70;99.90;;;;;;5073238;28;20428;-69
2022/01/24 05:46:33;;;;;;;3.40;3.10;;;2.70;99.90;;;;;;5072703;28;20103;-70
2022/01/24 05:48:58;;;;;;;2.92;2.72;;;2.70;99.90;;;;;;5072984;28;20127;-70
2022/01/24 05:51:24;;;;;;;3.03;2.70;;;2.70;99.90;;;;;;5065629;28;20077;-69
2022/01/24 05:53:50;;;;;;;3.78;3.17;;;2.70;99.90;;;;;;5087529;28;20437;-71
2022/01/24 05:56:16;;;;;;;5.38;3.17;;;2.70;99.90;;;;;;5074777;28;20395;-71
2022/01/24 05:58:42;;;;;;;4.70;3.67;;;2.70;99.90;;;;;;5072960;28;20491;-71
2022/01/24 06:01:08;;;;;;;5.15;3.00;;;2.70;99.90;;;;;;5075099;28;20020;-70
2022/01/24 06:03:35;;;;;;;5.25;3.40;;;2.70;99.90;;;;;;5072652;28;20423;-70
2022/01/24 06:06:00;;;;;;;3.30;3.00;;;2.60;99.90;;;;;;5071356;28;20039;-70
2022/01/24 06:08:29;;;;;;;4.68;3.15;;;2.70;99.90;;;;;;5071694;28;20487;-69
2022/01/24 06:10:58;;;;;;;5.60;2.92;;;2.60;99.90;;;;;;5070748;28;20072;-70
2022/01/24 06:13:25;;;;;;;3.13;2.83;;;2.60;99.90;;;;;;5091373;28;20065;-68
2022/01/24 06:15:50;;;;;;;4.68;3.17;;;2.60;99.90;;;;;;5068680;28;20189;-71
2022/01/24 06:18:16;;;;;;;3.30;3.00;;;2.60;99.90;;;;;;5069458;28;20529;-69
2022/01/24 06:20:43;;;;;;;5.72;2.90;;;2.60;99.90;;;;;;5072726;28;20391;-69
2022/01/24 06:23:15;;;;;;;3.55;3.25;;;2.60;99.90;;;;;;5074672;28;20039;-69
2022/01/24 06:25:42;;;;;;;3.67;3.33;;;2.60;99.90;;;;;;5073069;28;20024;-67
2022/01/24 06:28:07;;;;;;;5.15;3.10;;;2.60;99.90;;;;;;5072664;28;20495;-67
2022/01/24 06:30:33;;;;;;;5.72;3.20;;;2.60;99.90;;;;;;5074747;28;20115;-68
2022/01/24 06:32:58;;;;;;;5.88;2.92;;;2.60;99.90;;;;;;5074394;28;20442;-68
2022/01/24 06:35:24;;;;;;;6.05;3.53;;;2.60;99.90;;;;;;5074521;28;20388;-69
2022/01/24 06:37:50;;;;;;;3.60;3.17;;;2.60;99.90;;;;;;5073796;28;20024;-69
2022/01/24 06:40:16;;;;;;;3.47;3.17;;;2.60;99.90;;;;;;5074360;28;20030;-68
2022/01/24 06:42:42;;;;;;;5.13;3.50;;;2.60;99.90;;;;;;5074229;28;20027;-68
2022/01/24 06:45:09;;;;;;;4.95;3.50;;;2.60;99.90;;;;;;5073174;28;20586;-69
2022/01/24 06:47:35;;;;;;;3.63;3.33;;;2.60;99.90;;;;;;5064542;28;20134;-69
2022/01/24 06:50:01;;;;;;;3.92;3.53;;;2.60;99.90;;;;;;5074548;28;20020;-68
2022/01/24 06:52:27;;;;;;;8.20;3.85;;;2.60;99.90;;;;;;5074412;28;20433;-69
2022/01/24 06:54:53;;;;;;;5.97;3.40;;;2.60;99.90;;;;;;5090652;28;20095;-69
2022/01/24 06:57:18;;;;;;;5.80;3.05;;;2.60;99.90;;;;;;5067897;28;20169;-69
2022/01/24 06:59:45;;;;;;;4.63;3.53;;;2.60;99.90;;;;;;5070900;28;20411;-68
2022/01/24 07:02:13;;;;;;;8.20;3.42;;;2.60;99.90;;;;;;5073319;28;20039;-68
2022/01/24 07:04:42;;;;;;;7.53;3.50;;;2.50;99.90;;;;;;5073284;28;20029;-69
2022/01/24 07:07:09;;;;;;;5.25;3.28;;;2.50;99.90;;;;;;5091148;28;20122;-69
2022/01/24 07:09:36;;;;;;;5.38;3.30;;;2.60;99.90;;;;;;5072616;28;20458;-68
2022/01/24 07:12:03;;;;;;;3.38;2.78;;;2.60;99.90;;;;;;5072518;28;20115;-69
2022/01/24 07:14:29;;;;;;;5.18;3.08;;;2.50;99.90;;;;;;5091580;28;20024;-69
2022/01/24 07:19:24;;;;;;;3.45;2.92;;;2.50;99.90;;;;;;5091087;28;20073;-68
2022/01/24 07:21:50;;;;;;;3.38;3.08;;;2.50;99.90;;;;;;5073670;28;20039;-69
2022/01/24 07:24:16;;;;;;;4.15;2.97;;;2.50;99.90;;;;;;5072857;28;20028;-68
2022/01/24 07:26:41;;;;;;;5.85;2.65;;;2.50;99.90;;;;;;5072304;28;20020;-68
2022/01/24 07:29:07;;;;;;;2.72;2.58;;;2.50;99.90;;;;;;5071433;28;20074;-69
2022/01/24 07:31:32;;;;;;;4.97;3.00;;;2.50;99.90;;;;;;5075715;28;20024;-69
2022/01/24 07:33:58;;;;;;;4.18;2.75;;;2.60;99.90;;;;;;5071209;28;20020;-69
2022/01/24 07:36:25;;;;;;;4.32;2.90;;;2.60;99.90;;;;;;5077180;28;20049;-69
2022/01/24 07:38:51;;;;;;;2.92;2.60;;;2.60;99.90;;;;;;5071268;28;20111;-70
2022/01/24 07:41:23;;;;;;;5.32;2.60;;;2.60;99.90;;;;;;5071368;28;20020;-69
2022/01/24 07:43:49;;;;;;;4.07;2.60;;;2.60;99.90;;;;;;5072848;28;20024;-68
2022/01/24 07:46:15;;;;;;;2.97;2.40;;;2.60;99.90;;;;;;5072945;28;20031;-69
2022/01/24 07:48:41;;;;;;;5.18;2.65;;;2.70;99.90;;;;;;5072991;28;20020;-69
2022/01/24 07:51:06;;;;;;;2.60;2.40;;;2.70;99.90;;;;;;5073300;28;20475;-69
2022/01/24 07:53:32;;;;;;;2.15;2.03;;;2.70;99.90;;;;;;5072974;28;20082;-68
2022/01/24 07:55:58;;;;;;;3.50;2.40;;;2.70;99.90;;;;;;5070033;28;20487;-69
2022/01/24 07:58:24;;;;;;;2.47;2.25;;;2.80;99.90;;;;;;5071234;28;20028;-68
2022/01/24 08:00:50;;;;;;;3.58;2.42;;;2.80;99.90;;;;;;5066136;28;20016;-68
2022/01/24 08:03:15;;;;;;;2.90;2.40;;;2.80;99.90;;;;;;5091649;28;20027;-68
2022/01/24 08:05:42;;;;;;;2.85;2.45;;;2.90;99.90;;;;;;5073263;28;20024;-69
2022/01/24 08:08:07;;;;;;;2.35;2.15;;;2.90;99.90;;;;;;5072930;28;20028;-68
2022/01/24 08:10:34;;;;;;;2.83;2.45;;;2.90;99.90;;;;;;5072636;28;20047;-68
2022/01/24 08:13:01;;;;;;;3.33;2.20;;;2.90;99.90;;;;;;5073342;28;20503;-68
2022/01/24 08:15:26;;;;;;;2.72;2.22;;;3.00;99.90;;;;;;5073024;28;20032;-68
2022/01/24 08:17:52;;;;;;;3.70;2.47;;;3.00;99.90;;;;;;5073008;28;20020;-68
2022/01/24 08:20:19;;;;;;;5.78;2.42;;;3.00;99.90;;;;;;5073525;28;20508;-68
2022/01/24 08:22:45;;;;;;;4.63;2.67;;;3.00;99.90;;;;;;5073493;28;20394;-68
2022/01/24 08:25:12;;;;;;;6.22;2.75;;;3.00;99.90;;;;;;5073056;28;20028;-68
2022/01/24 08:27:38;;;;;;;2.90;2.70;;;3.10;99.90;;;;;;5069487;28;20048;-68
2022/01/24 08:30:10;;;;;;;3.45;2.65;;;3.10;99.90;;;;;;5068149;28;20490;-68
2022/01/24 08:32:36;;;;;;;3.45;2.97;;;3.10;99.90;;;;;;5075648;28;20086;-68
2022/01/24 08:35:03;;;;;;;9.60;2.97;;;3.20;99.90;;;;;;5077977;28;20028;-69
2022/01/24 08:37:28;;;;;;;6.70;3.08;;;3.20;99.90;;;;;;5077237;28;20035;-68
2022/01/24 08:39:56;;;;;;;5.75;3.17;;;3.20;99.90;;;;;;5077061;28;20407;-68
2022/01/24 08:47:27;;;;;;;3.35;3.05;;;3.20;99.90;;;;;;5094908;28;20024;-68
2022/01/24 08:49:53;;;;;;;7.38;3.13;;;3.20;99.90;;;;;;5076626;28;20032;-68
2022/01/24 08:52:20;;;;;;;3.85;2.85;;;3.30;99.90;;;;;;5076689;28;20110;-69
2022/01/24 08:54:46;;;;;;;3.53;2.83;;;3.30;99.90;;;;;;5095144;28;20462;-68
2022/01/24 08:57:13;;;;;;;3.45;1.95;;;3.30;99.90;;;;;;5076257;28;20084;-68
2022/01/24 08:59:39;;;;;;;2.83;2.10;;;3.30;99.90;;;;;;5076480;28;20012;-68
2022/01/24 09:02:06;;;;;;;6.05;2.05;;;3.30;99.90;;;;;;5076778;28;20032;-68
2022/01/24 09:04:32;;;;;;;3.92;1.90;;;3.30;99.90;;;;;;5072076;28;20028;-68
2022/01/24 09:07:03;;;;;;;2.13;1.92;;;3.40;99.90;;;;;;5076482;28;20034;-69
2022/01/24 09:09:29;;;;;;;4.63;2.17;;;3.30;99.90;;;;;;5076195;28;20376;-68
2022/01/24 09:11:55;;;;;;;4.03;2.15;;;3.40;99.90;;;;;;5076601;28;20024;-68
2022/01/24 09:14:21;;;;;;;2.88;1.80;;;3.40;99.90;;;;;;5076412;28;20097;-68
2022/01/24 09:16:46;;;;;;;1.85;1.75;;;3.40;99.90;;;;;;5076366;28;20073;-68
2022/01/24 09:19:12;;;;;;;2.08;1.88;;;3.50;99.90;;;;;;5075417;28;20077;-68
2022/01/24 09:21:38;;;;;;;2.65;2.15;;;3.50;99.90;;;;;;5076775;28;20133;-68
2022/01/24 09:24:04;;;;;;;2.65;2.13;;;3.50;99.90;;;;;;5076102;28;20028;-68
2022/01/24 09:26:30;;;;;;;3.92;2.10;;;3.50;99.90;;;;;;5076239;28;20163;-68
2022/01/24 09:28:56;;;;;;;5.97;1.80;;;3.60;99.90;;;;;;5075843;28;20612;-68
2022/01/24 09:31:22;;;;;;;2.22;2.00;;;3.60;99.90;;;;;;5076164;28;20024;-67
2022/01/24 09:33:49;;;;;;;3.80;1.88;;;3.60;99.90;;;;;;5074541;28;20035;-69
2022/01/24 09:36:15;;;;;;;1.90;1.73;;;3.60;99.90;;;;;;5073710;28;20032;-68
2022/01/24 09:38:41;;;;;;;3.08;1.80;;;3.60;99.90;;;;;;5073140;28;23290;-69
2022/01/24 09:41:09;;;;;;;2.30;1.98;;;3.70;99.90;;;;;;5074224;28;20178;-68
2022/01/24 09:43:35;;;;;;;1.95;1.77;;;3.70;99.90;;;;;;5073420;28;20028;-68
2022/01/24 09:46:02;;;;;;;3.30;2.38;;;3.70;99.90;;;;;;5075430;28;20156;-68
2022/01/24 09:48:30;;;;;;;2.10;1.92;;;3.70;99.90;;;;;;5074611;28;20115;-69
2022/01/24 09:50:56;;;;;;;3.38;2.10;;;3.70;99.90;;;;;;5075149;28;20035;-68
2022/01/24 09:53:24;;;;;;;2.40;2.20;;;3.70;99.90;;;;;;5074139;28;20097;-68
2022/01/24 09:55:51;;;;;;;2.90;2.13;;;3.70;99.90;;;;;;5064518;28;20024;-68
2022/01/24 09:58:17;;;;;;;3.20;1.92;;;3.70;99.90;;;;;;5066560;28;20024;-68
2022/01/24 10:00:43;;;;;;;2.53;1.85;;;3.80;99.90;;;;;;5078248;28;20055;-69
2022/01/24 10:03:14;;;;;;;4.13;1.83;;;3.70;99.90;;;;;;5092396;28;20407;-68
2022/01/24 10:05:42;;;;;;;3.70;1.73;;;3.80;99.90;;;;;;5091763;28;20024;-68
2022/01/24 10:08:14;;;;;;;7.63;2.22;;;3.80;99.90;;;;;;5091437;28;20085;-68
2022/01/24 10:10:49;;;;;;;5.15;2.40;;;3.80;99.90;;;;;;5090572;28;20024;-68
2022/01/24 10:16:29;;;;;;;4.53;2.15;;;3.80;99.90;;;;;;5093536;28;20495;-68
2022/01/24 10:19:09;;;;;;;3.33;1.90;;;3.80;99.90;;;;;;5074231;28;20021;-68
2022/01/24 10:21:40;;;;;;;5.25;1.77;;;3.80;99.90;;;;;;5076387;28;20035;-69
2022/01/24 10:24:06;;;;;;;2.92;1.77;;;3.80;99.90;;;;;;5075237;28;20376;-68
2022/01/24 10:26:32;;;;;;;4.30;2.10;;;3.80;99.90;;;;;;5066551;28;20020;-68
2022/01/24 10:28:58;;;;;;;2.17;1.77;;;3.80;99.90;;;;;;5065897;28;20112;-68
2022/01/24 10:31:28;;;;;;;2.42;1.90;;;3.80;99.90;;;;;;5074860;28;20028;-69
2022/01/24 10:34:23;;;;;;;2.20;2.03;;;3.80;99.90;;;;;;5074796;28;20024;-68
2022/01/24 10:45:13;;;;;;;2.13;1.88;;;3.90;99.90;;;;;;5099050;28;20055;-68
2022/01/24 10:47:46;;;;;;;5.63;1.92;;;4.00;99.90;;;;;;5090848;28;20024;-68
2022/01/24 10:50:29;;;;;;;2.72;1.80;;;4.00;99.90;;;;;;5094469;28;20020;-68
2022/01/24 10:52:57;;;;;;;5.35;1.90;;;4.00;99.90;;;;;;5094596;28;20032;-68
2022/01/24 10:55:28;;;;;;;2.17;1.98;;;4.10;99.90;;;;;;5093860;28;20479;-68
2022/01/24 10:58:05;;;;;;;2.28;2.08;;;4.10;99.90;;;;;;5093876;28;20048;-68
2022/01/24 11:00:33;;;;;;;4.00;1.85;;;4.10;99.90;;;;;;5074681;28;20028;-68
2022/01/24 11:03:00;;;;;;;2.10;1.90;;;4.10;99.90;;;;;;5078957;28;20036;-68
2022/01/24 11:05:26;;;;;;;2.20;2.03;;;4.10;99.90;;;;;;5094201;28;20027;-67
2022/01/24 11:07:59;;;;;;;2.20;1.85;;;4.10;99.90;;;;;;5093595;28;20418;-68
2022/01/24 11:10:46;;;;;;;3.08;2.05;;;4.20;99.90;;;;;;5091615;28;20096;-69
2022/01/24 11:13:13;;;;;;;4.57;2.00;;;4.20;99.90;;;;;;5090031;28;20096;-69
2022/01/24 11:15:42;;;;;;;6.95;2.45;;;4.20;99.90;;;;;;5094380;28;20483;-69
2022/01/24 11:18:14;;;;;;;3.35;2.25;;;4.20;99.90;;;;;;5093147;28;20027;-68
2022/01/24 11:20:44;;;;;;;4.18;2.10;;;4.30;99.90;;;;;;5093428;28;20054;-69
2022/01/24 11:23:10;;;;;;;3.67;1.92;;;4.30;99.90;;;;;;5094158;28;20053;-68
2022/01/24 11:25:42;;;;;;;2.50;2.30;;;4.30;99.90;;;;;;5094293;28;20049;-70
2022/01/24 11:28:09;;;;;;;7.43;2.60;;;4.30;99.90;;;;;;5093065;28;20035;-68
2022/01/24 11:30:48;;;;;;;3.17;2.13;;;4.30;99.90;;;;;;5094190;28;20112;-69
2022/01/24 11:33:32;;;;;;;2.17;1.95;;;4.40;99.90;;;;;;5093770;28;20092;-68
2022/01/24 11:36:05;;;;;;;1.95;1.85;;;4.40;99.90;;;;;;5092424;28;20495;-68
2022/01/24 11:38:32;;;;;;;2.50;2.17;;;4.40;99.90;;;;;;5090692;28;20039;-67
2022/01/24 11:41:25;;;;;;;2.15;1.95;;;4.50;99.90;;;;;;5086255;28;20262;-68
2022/01/24 11:44:06;;;;;;;4.07;2.10;;;4.50;99.90;;;;;;5078775;28;20114;-68
2022/01/24 11:46:36;;;;;;;2.85;1.95;;;4.60;99.90;;;;;;5103985;27;20059;-68
2022/01/24 11:49:05;;;;;;;3.55;2.30;;;4.60;99.90;;;;;;5096243;28;20027;-68
2022/01/24 11:51:33;;;;;;;2.50;2.22;;;4.60;99.90;;;;;;5093829;28;20019;-68
2022/01/24 11:53:59;;;;;;;7.38;4.32;;;4.70;99.90;;;;;;5092064;28;20116;-68
2022/01/24 11:56:28;;;;;;;6.32;3.20;;;4.70;99.90;;;;;;5093731;28;20051;-68
2022/01/24 11:59:19;;;;;;;5.90;2.90;;;4.80;99.90;;;;;;5088419;28;20023;-68
2022/01/24 12:01:51;;;;;;;3.08;2.22;;;4.90;99.90;;;;;;5093553;28;20097;-68
2022/01/24 12:04:52;;;;;;;4.70;2.67;;;5.00;99.90;;;;;;5093869;28;20024;-69
2022/01/24 12:07:22;;;;;;;3.45;2.85;;;5.00;99.90;;;;;;5091795;28;20803;-68
2022/01/24 12:09:48;;;;;;;3.42;2.70;;;5.10;99.90;;;;;;5085737;28;20027;-68
2022/01/24 12:12:38;;;;;;;4.53;2.33;;;5.10;99.90;;;;;;5089309;28;20027;-68
2022/01/24 12:15:07;;;;;;;3.05;2.53;;;5.20;99.90;;;;;;5088869;28;20101;-67
2022/01/24 12:17:46;;;;;;;3.20;2.25;;;5.20;99.90;;;;;;5089690;28;20693;-68
2022/01/24 12:20:31;;;;;;;5.15;2.13;;;5.30;99.90;;;;;;5087092;28;20027;-68
2022/01/24 12:23:27;;;;;;;2.90;2.20;;;5.30;99.90;;;;;;5090603;28;20088;-68
2022/01/24 12:26:08;;;;;;;3.03;1.80;;;5.40;99.90;;;;;;5081662;28;20050;-68
2022/01/24 12:28:34;;;;;;;2.90;1.92;;;5.40;99.90;;;;;;5082669;28;20024;-68
2022/01/24 12:31:07;;;;;;;2.15;1.95;;;5.40;99.90;;;;;;5092528;28;20058;-68
2022/01/24 12:33:41;;;;;;;4.10;2.70;;;5.50;99.90;;;;;;5092541;28;20486;-67
2022/01/24 12:36:11;;;;;;;5.20;2.20;;;5.60;99.90;;;;;;5093359;28;20119;-71
2022/01/24 12:38:49;;;;;;;3.72;2.10;;;5.70;99.90;;;;;;5089884;28;20077;-69
2022/01/24 12:41:17;;;;;;;2.47;2.22;;;5.80;99.90;;;;;;5107741;28;20031;-69
2022/01/24 12:44:12;;;;;;;6.00;2.80;;;5.80;99.90;;;;;;5093099;28;20415;-69
2022/01/24 12:46:37;;;;;;;3.15;2.40;;;5.80;99.90;;;;;;5091388;28;20026;-68
2022/01/24 12:49:07;;;;;;;2.60;2.15;;;5.80;99.90;;;;;;5072102;28;20122;-68
2022/01/24 12:51:37;;;;;;;5.50;2.20;;;5.80;99.90;;;;;;5106510;28;20039;-69
2022/01/24 12:54:05;;;;;;;6.38;2.22;;;5.80;99.90;;;;;;5092942;28;20028;-68
2022/01/24 12:56:34;;;;;;;6.10;2.72;;;5.80;99.90;;;;;;5093004;28;20035;-68
2022/01/24 12:59:00;;;;;;;4.30;2.20;;;5.80;99.90;;;;;;5092374;28;20015;-69
2022/01/24 13:01:30;;;;;;;4.95;2.38;;;5.90;99.90;;;;;;5092064;28;20460;-69
2022/01/24 13:03:58;;;;;;;4.88;2.30;;;6.00;99.90;;;;;;5093175;28;20080;-69
2022/01/24 13:06:35;;;;;;;6.93;2.30;;;6.20;99.90;;;;;;5092652;28;20031;-68
2022/01/24 13:09:11;;;;;;;3.67;2.17;;;6.40;99.90;;;;;;5085883;28;20553;-69
2022/01/24 13:11:48;;;;;;;3.92;2.35;;;6.50;99.90;;;;;;5091893;28;20122;-68
2022/01/24 13:14:25;;;;;;;4.32;2.25;;;6.70;99.90;;;;;;5111374;28;20509;-68
2022/01/24 13:22:42;;;;;;;2.95;1.98;;;7.20;99.90;;;;;;5121723;27;20419;-68
2022/01/24 13:25:14;;;;;;;2.88;1.60;;;7.30;99.90;;;;;;5095842;28;20027;-68
2022/01/24 13:27:48;;;;;;;2.38;1.88;;;7.40;99.90;;;;;;5092597;28;20032;-69
2022/01/24 13:30:31;;;;;;;4.43;1.90;;;7.50;99.90;;;;;;5087592;28;20031;-69
2022/01/24 13:33:09;;;;;;;4.32;1.70;;;7.60;99.90;;;;;;5076154;28;20028;-69
2022/01/24 13:35:35;;;;;;;3.95;1.90;;;7.60;99.90;;;;;;5088049;28;20391;-68
2022/01/24 13:38:13;;;;;;;5.70;1.80;;;7.70;99.90;;;;;;5095276;28;20032;-68
2022/01/24 13:43:36;;;;;;;2.05;1.77;;;7.80;99.90;;;;;;5114824;28;20031;-69
2022/01/24 13:46:05;;;;;;;4.07;1.30;;;7.80;99.90;;;;;;5092090;28;20709;-69
2022/01/24 13:48:47;;;;;;;2.10;1.40;;;7.80;99.90;;;;;;5093799;28;20040;-68
2022/01/24 13:51:19;;;;;;;1.50;1.40;;;7.60;99.90;;;;;;5095982;28;20643;-69
2022/01/24 13:53:53;;;;;;;3.00;1.48;;;7.60;99.90;;;;;;5091360;28;20031;-69
2022/01/24 13:56:28;;;;;;;4.88;2.50;;;7.60;99.90;;;;;;5107371;27;20475;-69
2022/01/24 13:59:06;;;;;;;1.92;1.80;;;7.70;99.90;;;;;;5085350;28;20036;-70
2022/01/24 14:01:33;;;;;;;2.42;1.70;;;7.80;99.90;;;;;;5094776;28;20040;-69
2022/01/24 14:04:00;;;;;;;4.07;1.80;;;7.80;99.90;;;;;;5095820;28;20020;-68
2022/01/24 14:06:31;;;;;;;4.85;1.95;;;7.90;99.90;;;;;;5095539;28;20046;-69
2022/01/24 14:09:04;;;;;;;4.93;1.85;;;8.00;99.90;;;;;;5091629;28;20035;-69
2022/01/24 14:11:30;;;;;;;5.45;1.80;;;8.00;99.90;;;;;;5076825;28;20028;-69
2022/01/24 14:14:06;;;;;;;2.20;1.50;;;8.00;99.90;;;;;;5088224;28;20043;-69
2022/01/24 14:16:42;;;;;;;2.47;1.60;;;8.00;99.90;;;;;;5095326;28;20387;-69
2022/01/24 14:19:08;;;;;;;2.30;1.63;;;8.00;99.90;;;;;;5091217;28;20110;-69
2022/01/24 14:21:34;;;;;;;4.10;1.90;;;8.00;99.90;;;;;;5075151;28;20115;-69
2022/01/24 14:24:02;;;;;;;5.72;1.83;;;8.00;99.90;;;;;;5086811;28;20030;-68
2022/01/24 14:26:30;;;;;;;5.00;1.75;;;7.90;99.90;;;;;;5095291;28;20072;-68
2022/01/24 14:29:12;;;;;;;2.13;1.90;;;7.90;99.90;;;;;;5093729;28;20035;-68
2022/01/24 14:31:40;;;;;;;1.80;1.65;;;7.90;99.90;;;;;;5094857;28;20031;-69
2022/01/24 14:34:07;;;;;;;3.75;1.75;;;7.90;99.90;;;;;;5093161;28;20035;-68
2022/01/24 14:36:34;;;;;;;3.67;1.80;;;7.90;99.90;;;;;;5088524;28;20475;-69
2022/01/24 14:39:04;;;;;;;3.88;2.22;;;7.90;99.90;;;;;;5093992;28;20035;-69
2022/01/24 14:41:34;;;;;;;3.28;1.90;;;7.90;99.90;;;;;;5093124;28;20431;-69
2022/01/24 14:46:47;;;;;;;2.17;1.98;;;7.90;99.90;;;;;;5112941;28;20080;-69
2022/01/24 14:49:16;;;;;;;2.50;2.08;;;7.90;99.90;;;;;;5093590;28;20028;-69
2022/01/24 14:51:44;;;;;;;4.10;2.10;;;7.90;99.90;;;;;;5094427;28;20024;-69
2022/01/24 14:54:16;;;;;;;3.45;1.95;;;7.90;99.90;;;;;;5087233;28;20031;-69
2022/01/24 14:56:53;;;;;;;4.40;1.85;;;7.80;99.90;;;;;;5083717;28;20053;-68
2022/01/24 14:59:21;;;;;;;2.22;2.03;;;7.80;99.90;;;;;;5081940;28;20028;-68
2022/01/24 15:01:48;;;;;;;4.47;1.95;;;7.70;99.90;;;;;;5084405;28;20084;-69
2022/01/24 15:04:14;;;;;;;3.92;2.00;;;7.60;99.90;;;;;;5094271;28;20027;-69
2022/01/24 15:06:40;;;;;;;4.10;2.20;;;7.50;99.90;;;;;;5087621;28;20024;-68
2022/01/24 15:09:17;;;;;;;5.85;2.30;;;7.30;99.90;;;;;;5072926;28;20051;-69